Time;durP1;ratioP1;P1;durP2;ratioP2;P2;SDS_P1;SDS_P2;PMS_P1;PMS_P2;Temp;Humidity;BMP_temperature;BMP_pressure;BME280_temperature;BME280_humidity;BME280_pressure;Samples;Min_cycle;Max_cycle;Signal;HPM_P1;HPM_P2
2022/05/23 00:02:08;;;;;;;0.00;0.00;;;14.50;99.90;;;;;;5075130;28;20477;-76
2022/05/23 00:04:35;;;;;;;0.10;0.10;;;14.40;99.90;;;;;;5075064;28;20045;-76
2022/05/23 00:07:02;;;;;;;0.00;0.00;;;14.40;99.90;;;;;;5075192;28;20105;-76
2022/05/23 00:09:29;;;;;;;0.00;0.00;;;14.40;99.90;;;;;;5057811;28;20059;-76
2022/05/23 00:11:55;;;;;;;0.00;0.00;;;14.30;99.90;;;;;;5074583;28;20058;-76
2022/05/23 00:14:21;;;;;;;0.00;0.00;;;14.20;99.90;;;;;;5057809;28;20060;-76
2022/05/23 00:16:48;;;;;;;0.00;0.00;;;14.30;99.90;;;;;;5074802;28;20490;-76
2022/05/23 00:19:15;;;;;;;0.10;0.10;;;14.20;99.90;;;;;;5074569;28;20477;-76
2022/05/23 00:21:45;;;;;;;0.00;0.00;;;14.20;99.90;;;;;;5074494;28;20040;-76
2022/05/23 00:24:13;;;;;;;0.20;0.00;;;14.20;99.90;;;;;;5073955;28;20472;-76
2022/05/23 00:26:40;;;;;;;0.00;0.00;;;14.10;99.90;;;;;;5074392;28;20045;-76
2022/05/23 00:29:06;;;;;;;0.00;0.00;;;14.10;99.90;;;;;;5074486;28;20549;-76
2022/05/23 00:31:32;;;;;;;0.00;0.00;;;14.10;99.90;;;;;;5058000;28;20056;-76
2022/05/23 00:36:41;;;;;;;0.00;0.00;;;14.00;99.90;;;;;;5075047;28;20368;-76
2022/05/23 00:39:07;;;;;;;0.00;0.00;;;14.00;99.90;;;;;;5074764;28;20040;-77
2022/05/23 00:44:37;;;;;;;0.00;0.00;;;13.90;99.90;;;;;;5074026;28;20502;-76
2022/05/23 00:47:22;;;;;;;0.00;0.00;;;13.80;99.90;;;;;;5074399;28;20048;-76
2022/05/23 00:49:48;;;;;;;0.00;0.00;;;13.80;99.90;;;;;;5073890;28;20493;-76
2022/05/23 00:52:26;;;;;;;0.00;0.00;;;13.70;99.90;;;;;;5057038;28;20048;-76
2022/05/23 00:54:56;;;;;;;0.00;0.00;;;13.70;99.90;;;;;;5056749;28;20111;-76
2022/05/23 00:57:38;;;;;;;0.00;0.00;;;13.70;99.90;;;;;;5073725;28;20060;-76
2022/05/23 01:00:08;;;;;;;0.00;0.00;;;13.70;99.90;;;;;;5074258;28;20048;-76
2022/05/23 01:02:36;;;;;;;0.00;0.00;;;13.70;99.90;;;;;;5073666;28;20080;-76
2022/05/23 01:05:06;;;;;;;0.00;0.00;;;13.70;99.90;;;;;;5056996;28;20060;-76
2022/05/23 01:07:31;;;;;;;0.00;0.00;;;13.60;99.90;;;;;;5056793;28;20059;-76
2022/05/23 01:09:57;;;;;;;0.00;0.00;;;13.60;99.90;;;;;;5057205;28;20127;-76
2022/05/23 01:12:24;;;;;;;0.00;0.00;;;13.60;99.90;;;;;;5056668;28;20045;-76
2022/05/23 01:14:53;;;;;;;0.00;0.00;;;13.60;99.90;;;;;;5073509;28;20048;-76
2022/05/23 01:17:20;;;;;;;0.00;0.00;;;13.50;99.90;;;;;;5073486;28;20132;-76
2022/05/23 01:19:46;;;;;;;0.00;0.00;;;13.50;99.90;;;;;;5056965;28;20063;-76
2022/05/23 01:22:17;;;;;;;0.10;0.10;;;13.50;99.90;;;;;;5073289;28;20048;-76
2022/05/23 01:25:05;;;;;;;0.00;0.00;;;13.50;99.90;;;;;;5073940;28;20048;-76
2022/05/23 01:27:32;;;;;;;0.00;0.00;;;13.50;99.90;;;;;;5073265;28;20483;-76
2022/05/23 01:29:58;;;;;;;0.00;0.00;;;13.50;99.90;;;;;;5073181;28;20484;-77
2022/05/23 01:32:23;;;;;;;0.00;0.00;;;13.40;99.90;;;;;;5073113;28;20040;-76
2022/05/23 01:34:49;;;;;;;0.00;0.00;;;13.50;99.90;;;;;;5072820;28;20075;-76
2022/05/23 01:37:16;;;;;;;0.00;0.00;;;13.60;99.90;;;;;;5072986;28;20135;-76
2022/05/23 01:39:41;;;;;;;0.00;0.00;;;13.60;99.90;;;;;;5072885;28;20182;-76
2022/05/23 01:42:07;;;;;;;0.00;0.00;;;13.60;99.90;;;;;;5073448;28;20091;-76
2022/05/23 01:44:34;;;;;;;0.00;0.00;;;13.60;99.90;;;;;;5056551;28;20056;-76
2022/05/23 01:47:10;;;;;;;0.00;0.00;;;13.60;99.90;;;;;;5073036;28;20048;-77
2022/05/23 01:49:35;;;;;;;0.00;0.00;;;13.60;99.90;;;;;;5056512;28;20048;-77
2022/05/23 01:52:01;;;;;;;0.00;0.00;;;13.60;99.90;;;;;;5056168;28;20052;-77
2022/05/23 01:54:27;;;;;;;0.00;0.00;;;13.70;99.90;;;;;;5072482;28;20048;-76
2022/05/23 01:56:53;;;;;;;0.00;0.00;;;13.60;99.90;;;;;;5072757;28;20036;-76
2022/05/23 02:02:02;;;;;;;0.00;0.00;;;13.60;99.90;;;;;;5073569;28;20052;-76
2022/05/23 02:04:28;;;;;;;0.00;0.00;;;13.60;99.90;;;;;;5072813;28;20106;-77
2022/05/23 02:06:54;;;;;;;0.00;0.00;;;13.60;99.90;;;;;;5073278;28;20468;-76
2022/05/23 02:09:26;;;;;;;0.00;0.00;;;13.60;99.90;;;;;;5056036;28;20476;-76
2022/05/23 02:11:52;;;;;;;0.00;0.00;;;13.60;99.90;;;;;;5072906;28;20048;-76
2022/05/23 02:14:18;;;;;;;0.00;0.00;;;13.60;99.90;;;;;;5072811;28;20052;-76
2022/05/23 02:16:44;;;;;;;0.00;0.00;;;13.60;99.90;;;;;;5072749;28;20404;-76
2022/05/23 02:19:09;;;;;;;0.00;0.00;;;13.60;99.90;;;;;;5072966;28;20110;-76
2022/05/23 02:21:35;;;;;;;0.00;0.00;;;13.60;99.90;;;;;;5072687;28;20048;-77
2022/05/23 02:24:03;;;;;;;0.00;0.00;;;13.60;99.90;;;;;;5072807;28;20048;-77
2022/05/23 02:26:30;;;;;;;0.00;0.00;;;13.60;99.90;;;;;;5056307;28;20087;-76
2022/05/23 02:28:56;;;;;;;0.00;0.00;;;13.50;99.90;;;;;;5072557;28;20377;-77
2022/05/23 02:31:21;;;;;;;0.00;0.00;;;13.50;99.90;;;;;;5073023;28;20063;-77
2022/05/23 02:33:47;;;;;;;0.00;0.00;;;13.50;99.90;;;;;;5072500;28;20045;-76
2022/05/23 02:36:12;;;;;;;0.00;0.00;;;13.60;99.90;;;;;;5072725;28;20082;-76
2022/05/23 02:38:38;;;;;;;0.03;0.03;;;13.50;99.90;;;;;;5055846;28;20147;-77
2022/05/23 02:41:04;;;;;;;0.00;0.00;;;13.60;99.90;;;;;;5072472;28;20115;-77
2022/05/23 02:43:30;;;;;;;0.00;0.00;;;13.60;99.90;;;;;;5072416;28;20140;-76
2022/05/23 02:45:56;;;;;;;0.00;0.00;;;13.50;99.90;;;;;;5072612;28;20090;-76
2022/05/23 02:48:22;;;;;;;0.00;0.00;;;13.60;99.90;;;;;;5058327;28;20102;-77
2022/05/23 02:50:48;;;;;;;0.00;0.00;;;13.50;99.90;;;;;;5076299;28;20048;-77
2022/05/23 02:53:13;;;;;;;0.00;0.00;;;13.60;99.90;;;;;;5059132;28;20052;-77
2022/05/23 02:55:39;;;;;;;0.00;0.00;;;13.50;99.90;;;;;;5076081;28;20053;-77
2022/05/23 02:58:07;;;;;;;0.00;0.00;;;13.60;99.90;;;;;;5076060;28;20098;-76
2022/05/23 03:00:33;;;;;;;0.00;0.00;;;13.50;99.90;;;;;;5076316;28;20041;-77
2022/05/23 03:03:02;;;;;;;0.00;0.00;;;13.50;99.90;;;;;;5076062;28;20129;-77
2022/05/23 03:05:32;;;;;;;0.00;0.00;;;13.60;99.90;;;;;;5059400;28;20059;-77
2022/05/23 03:07:58;;;;;;;0.00;0.00;;;13.50;99.90;;;;;;5076264;28;20097;-77
2022/05/23 03:10:25;;;;;;;0.00;0.00;;;13.50;99.90;;;;;;5075900;28;20044;-76
2022/05/23 03:12:51;;;;;;;0.00;0.00;;;13.50;99.90;;;;;;5059041;28;20041;-76
2022/05/23 03:15:17;;;;;;;0.00;0.00;;;13.50;99.90;;;;;;5059211;28;20055;-76
2022/05/23 03:17:42;;;;;;;0.00;0.00;;;13.50;99.90;;;;;;5059065;28;20131;-77
2022/05/23 03:20:09;;;;;;;0.00;0.00;;;13.60;99.90;;;;;;5058672;28;20064;-77
2022/05/23 03:28:03;;;;;;;0.00;0.00;;;13.50;99.90;;;;;;5075691;28;20455;-76
2022/05/23 03:30:29;;;;;;;0.00;0.00;;;13.50;99.90;;;;;;5058903;28;20131;-76
2022/05/23 03:32:59;;;;;;;0.00;0.00;;;13.50;99.90;;;;;;5058617;28;20047;-76
2022/05/23 03:35:26;;;;;;;0.00;0.00;;;13.60;99.90;;;;;;5075507;28;20041;-77
2022/05/23 03:37:52;;;;;;;0.00;0.00;;;13.60;99.90;;;;;;5075150;28;20110;-77
2022/05/23 03:40:18;;;;;;;0.00;0.00;;;13.60;99.90;;;;;;5073283;28;20492;-76
2022/05/23 03:42:44;;;;;;;0.00;0.00;;;13.60;99.90;;;;;;5056683;28;20084;-76
2022/05/23 03:45:10;;;;;;;0.00;0.00;;;13.60;99.90;;;;;;5074158;28;20466;-76
2022/05/23 03:47:36;;;;;;;0.00;0.00;;;13.60;99.90;;;;;;5057088;28;20562;-76
2022/05/23 03:50:02;;;;;;;0.00;0.00;;;13.60;99.90;;;;;;5073857;28;20052;-76
2022/05/23 03:52:28;;;;;;;0.00;0.00;;;13.60;99.90;;;;;;5073956;28;20453;-77
2022/05/23 03:54:53;;;;;;;0.00;0.00;;;13.60;99.90;;;;;;5073534;28;20087;-76
2022/05/23 03:57:19;;;;;;;0.00;0.00;;;13.70;99.90;;;;;;5075039;28;20087;-77
2022/05/23 03:59:47;;;;;;;0.00;0.00;;;13.70;99.90;;;;;;5074119;28;20037;-77
2022/05/23 04:02:14;;;;;;;0.00;0.00;;;13.60;99.90;;;;;;5075035;28;20052;-77
2022/05/23 04:04:39;;;;;;;0.00;0.00;;;13.70;99.90;;;;;;5074878;28;20433;-77
2022/05/23 04:07:06;;;;;;;0.10;0.00;;;13.70;99.90;;;;;;5075083;28;20476;-76
2022/05/23 04:09:32;;;;;;;0.00;0.00;;;13.70;99.90;;;;;;5058020;28;20439;-76
2022/05/23 04:11:58;;;;;;;0.00;0.00;;;13.60;99.90;;;;;;5074861;28;20047;-76
2022/05/23 04:14:25;;;;;;;0.00;0.00;;;13.60;99.90;;;;;;5074755;28;20053;-76
2022/05/23 04:16:52;;;;;;;0.03;0.03;;;13.60;99.90;;;;;;5074659;28;20048;-76
2022/05/23 04:19:18;;;;;;;0.00;0.00;;;13.60;99.90;;;;;;5074602;28;20431;-76
2022/05/23 04:21:46;;;;;;;0.00;0.00;;;13.70;99.90;;;;;;5074688;28;20057;-77
2022/05/23 04:24:13;;;;;;;0.10;0.00;;;13.60;99.90;;;;;;5074565;28;20086;-77
2022/05/23 04:26:39;;;;;;;0.00;0.00;;;13.60;99.90;;;;;;5074566;28;20044;-77
2022/05/23 04:29:08;;;;;;;0.93;0.25;;;13.60;99.90;;;;;;5074243;28;20047;-77
2022/05/23 04:31:35;;;;;;;0.00;0.00;;;13.60;99.90;;;;;;5057250;28;20052;-77
2022/05/23 04:36:46;;;;;;;0.10;0.00;;;13.60;99.90;;;;;;5074275;28;20480;-77
2022/05/23 04:39:12;;;;;;;0.05;0.05;;;13.60;99.90;;;;;;5057478;28;20053;-77
2022/05/23 04:41:38;;;;;;;0.80;0.10;;;13.70;99.90;;;;;;5074267;28;20044;-77
2022/05/23 04:44:04;;;;;;;0.00;0.00;;;13.70;99.90;;;;;;5074107;28;20044;-77
2022/05/23 04:46:30;;;;;;;0.00;0.00;;;13.70;99.90;;;;;;5074601;28;20083;-77
2022/05/23 04:51:40;;;;;;;0.00;0.00;;;13.80;99.90;;;;;;5074196;28;20502;-77
2022/05/23 04:54:07;;;;;;;0.00;0.00;;;13.90;99.90;;;;;;5073485;28;20295;-77
2022/05/23 04:56:33;;;;;;;0.00;0.00;;;14.00;99.90;;;;;;5073824;28;20056;-76
2022/05/23 04:58:59;;;;;;;0.00;0.00;;;14.00;99.90;;;;;;5073724;28;20040;-76
2022/05/23 05:01:26;;;;;;;0.00;0.00;;;14.00;99.90;;;;;;5074483;28;20090;-76
2022/05/23 05:03:53;;;;;;;0.00;0.00;;;14.00;99.90;;;;;;5057030;28;20049;-77
2022/05/23 05:06:21;;;;;;;0.00;0.00;;;14.10;99.90;;;;;;5073810;28;20495;-76
2022/05/23 05:08:47;;;;;;;0.10;0.00;;;14.00;99.90;;;;;;5073669;28;20105;-76
2022/05/23 05:11:13;;;;;;;0.00;0.00;;;14.00;99.90;;;;;;5073536;28;20049;-76
2022/05/23 05:13:39;;;;;;;0.00;0.00;;;14.10;99.90;;;;;;5074006;28;20407;-76
2022/05/23 05:16:06;;;;;;;0.00;0.00;;;14.00;99.90;;;;;;5073556;28;20084;-77
2022/05/23 05:18:34;;;;;;;0.00;0.00;;;14.00;99.90;;;;;;5057389;28;20089;-77
2022/05/23 05:21:08;;;;;;;0.00;0.00;;;14.10;99.90;;;;;;5056869;28;20215;-77
2022/05/23 05:23:34;;;;;;;0.00;0.00;;;14.10;99.90;;;;;;5057032;28;20048;-77
2022/05/23 05:26:02;;;;;;;0.00;0.00;;;14.20;99.90;;;;;;5073115;28;20044;-77
2022/05/23 05:28:28;;;;;;;0.00;0.00;;;14.20;99.90;;;;;;5056452;28;20056;-76
2022/05/23 05:31:16;;;;;;;0.00;0.00;;;14.40;99.90;;;;;;5073312;28;20380;-77
2022/05/23 05:33:49;;;;;;;0.00;0.00;;;14.60;99.90;;;;;;5050375;28;20066;-77
2022/05/23 05:36:24;;;;;;;0.32;0.00;;;15.00;99.90;;;;;;5053491;28;20053;-77
2022/05/23 05:38:52;;;;;;;0.00;0.00;;;15.20;99.90;;;;;;5053391;28;20059;-77
2022/05/23 05:41:23;;;;;;;0.00;0.00;;;15.40;99.90;;;;;;5036519;28;20385;-77
2022/05/23 05:43:57;;;;;;;0.00;0.00;;;15.50;99.90;;;;;;5053438;28;20071;-77
2022/05/23 05:46:30;;;;;;;0.08;0.00;;;15.60;99.90;;;;;;5036661;28;20049;-77
2022/05/23 05:48:59;;;;;;;0.20;0.00;;;15.70;99.90;;;;;;5036543;28;20049;-78
2022/05/23 05:51:25;;;;;;;0.00;0.00;;;15.70;99.90;;;;;;5052701;28;20059;-77
2022/05/23 05:53:52;;;;;;;0.00;0.00;;;15.70;99.90;;;;;;5051385;28;20045;-77
2022/05/23 05:56:18;;;;;;;0.00;0.00;;;15.60;99.90;;;;;;5051355;28;20041;-77
2022/05/23 05:58:45;;;;;;;0.10;0.10;;;15.70;99.90;;;;;;5052869;28;20127;-77
2022/05/23 06:01:10;;;;;;;0.00;0.00;;;15.70;99.90;;;;;;5052904;28;20076;-77
2022/05/23 06:03:36;;;;;;;0.32;0.30;;;15.70;99.90;;;;;;5052432;28;20089;-77
2022/05/23 06:11:32;;;;;;;0.00;0.00;;;15.90;99.90;;;;;;5052860;28;19920;-77
2022/05/23 06:14:01;;;;;;;0.00;0.00;;;15.90;99.90;;;;;;5035699;28;20199;-77
2022/05/23 06:16:30;;;;;;;1.00;0.70;;;16.00;99.90;;;;;;5052797;28;20052;-77
2022/05/23 06:18:56;;;;;;;0.38;0.38;;;16.10;99.90;;;;;;5053069;28;20052;-77
2022/05/23 06:21:23;;;;;;;0.20;0.20;;;16.20;99.90;;;;;;5035982;28;20045;-77
2022/05/23 06:23:49;;;;;;;0.00;0.00;;;16.20;99.90;;;;;;5039579;28;20450;-78
2022/05/23 06:26:17;;;;;;;0.00;0.00;;;16.30;99.90;;;;;;5056841;28;20040;-78
2022/05/23 06:28:43;;;;;;;0.00;0.00;;;16.40;99.90;;;;;;5056715;28;20037;-77
2022/05/23 06:31:11;;;;;;;0.00;0.00;;;16.40;99.90;;;;;;5040276;28;20084;-78
2022/05/23 06:33:37;;;;;;;0.10;0.08;;;16.50;99.90;;;;;;5056395;28;20493;-78
2022/05/23 06:36:06;;;;;;;0.00;0.00;;;16.70;99.90;;;;;;5056713;28;20084;-77
2022/05/23 06:38:33;;;;;;;0.20;0.20;;;16.80;99.90;;;;;;5056576;28;20060;-77
2022/05/23 06:40:58;;;;;;;0.00;0.00;;;16.90;99.90;;;;;;5039674;28;20473;-77
2022/05/23 06:43:24;;;;;;;0.15;0.15;;;16.90;99.90;;;;;;5056470;28;20132;-77
2022/05/23 06:45:50;;;;;;;0.00;0.00;;;16.90;99.90;;;;;;5039565;28;20137;-77
2022/05/23 06:48:16;;;;;;;0.00;0.00;;;17.00;99.90;;;;;;5039696;28;20053;-78
2022/05/23 06:50:44;;;;;;;0.00;0.00;;;17.10;99.90;;;;;;5056682;28;20055;-78
2022/05/23 06:53:10;;;;;;;0.00;0.00;;;17.20;99.90;;;;;;5055567;28;20457;-78
2022/05/23 06:55:36;;;;;;;0.22;0.00;;;17.30;99.90;;;;;;5039095;28;20061;-78
2022/05/23 06:58:01;;;;;;;0.00;0.00;;;17.40;99.90;;;;;;5056327;28;20053;-78
2022/05/23 07:00:27;;;;;;;0.00;0.00;;;17.60;99.90;;;;;;5039347;28;20114;-78
2022/05/23 07:02:53;;;;;;;0.00;0.00;;;17.70;99.90;;;;;;5056205;28;20052;-78
2022/05/23 07:13:34;;;;;;;0.00;0.00;;;18.20;99.90;;;;;;5055795;28;20500;-78
2022/05/23 07:16:00;;;;;;;0.25;0.25;;;18.30;99.90;;;;;;5039574;28;20057;-78
2022/05/23 07:18:27;;;;;;;2.13;0.50;;;18.40;99.90;;;;;;5055385;28;20170;-77
2022/05/23 07:20:53;;;;;;;0.00;0.00;;;18.50;99.90;;;;;;5039334;28;20041;-78
2022/05/23 07:23:20;;;;;;;0.00;0.00;;;18.60;99.90;;;;;;5039098;28;20485;-78
2022/05/23 07:25:46;;;;;;;0.00;0.00;;;18.80;99.90;;;;;;5055446;28;20044;-78
2022/05/23 07:28:12;;;;;;;0.00;0.00;;;18.90;99.90;;;;;;5038964;28;20045;-78
2022/05/23 07:30:37;;;;;;;0.05;0.05;;;19.10;99.90;;;;;;5055567;28;20047;-77
2022/05/23 07:33:03;;;;;;;0.00;0.00;;;19.20;99.90;;;;;;5054996;28;20037;-77
2022/05/23 07:35:29;;;;;;;0.10;0.00;;;19.30;99.90;;;;;;5054380;28;20498;-77
2022/05/23 07:37:55;;;;;;;0.30;0.13;;;19.50;99.90;;;;;;5038859;28;20045;-78
2022/05/23 07:40:21;;;;;;;0.10;0.00;;;19.60;99.90;;;;;;5038857;28;20049;-78
2022/05/23 07:42:47;;;;;;;0.00;0.00;;;19.70;99.60;;;;;;5055412;28;20060;-78
2022/05/23 07:45:13;;;;;;;0.10;0.10;;;19.80;99.90;;;;;;5055531;28;20446;-77
2022/05/23 07:47:39;;;;;;;0.00;0.00;;;19.80;99.10;;;;;;5056120;28;20053;-78
2022/05/23 07:50:08;;;;;;;0.00;0.00;;;19.80;99.90;;;;;;5073501;28;20048;-78
2022/05/23 07:52:34;;;;;;;3.80;0.75;;;19.90;99.90;;;;;;5073205;28;20498;-78
2022/05/23 08:00:32;;;;;;;0.10;0.00;;;20.10;99.90;;;;;;5073238;28;20283;-78
2022/05/23 08:03:18;;;;;;;0.32;0.10;;;20.10;98.70;;;;;;5072244;28;20056;-78
2022/05/23 08:05:45;;;;;;;0.20;0.20;;;20.30;99.50;;;;;;5055249;28;20177;-78
2022/05/23 08:08:11;;;;;;;0.00;0.00;;;20.50;99.80;;;;;;5071868;28;20049;-77
2022/05/23 08:10:37;;;;;;;0.00;0.00;;;20.60;99.70;;;;;;5072350;28;20092;-78
2022/05/23 08:13:09;;;;;;;0.80;0.20;;;20.80;99.60;;;;;;5072958;28;20055;-77
2022/05/23 08:15:37;;;;;;;0.00;0.00;;;20.90;99.90;;;;;;5056181;28;20048;-77
2022/05/23 08:18:04;;;;;;;0.03;0.00;;;21.00;98.30;;;;;;5055615;28;20052;-77
2022/05/23 08:20:31;;;;;;;0.00;0.00;;;21.00;98.10;;;;;;5072896;28;20045;-78
2022/05/23 08:22:57;;;;;;;1.25;0.20;;;21.20;98.10;;;;;;5071997;28;20080;-76
2022/05/23 08:25:23;;;;;;;0.00;0.00;;;21.20;97.80;;;;;;5073044;28;20378;-76
2022/05/23 08:27:49;;;;;;;2.40;0.43;;;21.30;97.00;;;;;;5055834;28;20504;-77
2022/05/23 08:30:15;;;;;;;0.47;0.47;;;21.40;97.10;;;;;;5055170;28;20090;-77
2022/05/23 08:32:42;;;;;;;0.05;0.05;;;21.50;98.50;;;;;;5054185;28;20054;-77
2022/05/23 08:35:08;;;;;;;0.00;0.00;;;21.70;97.20;;;;;;5072185;28;20041;-76
2022/05/23 08:37:34;;;;;;;0.00;0.00;;;21.80;97.30;;;;;;5071604;28;20049;-78
2022/05/23 08:40:00;;;;;;;0.32;0.32;;;21.90;95.50;;;;;;5056235;28;20056;-77
2022/05/23 08:42:56;;;;;;;0.00;0.00;;;22.00;95.00;;;;;;5074164;28;20048;-77
2022/05/23 08:45:34;;;;;;;0.30;0.10;;;22.00;94.70;;;;;;5057011;28;20040;-76
2022/05/23 08:48:27;;;;;;;0.00;0.00;;;22.10;96.30;;;;;;5074054;28;20044;-76
2022/05/23 08:51:07;;;;;;;0.00;0.00;;;22.20;94.70;;;;;;5057528;28;20109;-77
2022/05/23 08:53:47;;;;;;;0.05;0.00;;;22.30;94.80;;;;;;5056918;28;20052;-77
2022/05/23 08:56:36;;;;;;;0.00;0.00;;;22.50;95.00;;;;;;5057237;28;20053;-76
2022/05/23 08:59:08;;;;;;;0.00;0.00;;;22.70;94.20;;;;;;5057495;28;20075;-76
2022/05/23 09:01:57;;;;;;;0.20;0.20;;;22.80;93.10;;;;;;5057695;28;20048;-76
2022/05/23 09:04:42;;;;;;;0.00;0.00;;;22.90;93.20;;;;;;5073921;28;20166;-76
2022/05/23 09:07:24;;;;;;;0.00;0.00;;;23.10;92.50;;;;;;5073888;28;20087;-77
2022/05/23 09:09:53;;;;;;;0.10;0.00;;;23.20;92.20;;;;;;5074334;28;20155;-77
2022/05/23 09:12:19;;;;;;;0.47;0.30;;;23.30;92.20;;;;;;5056810;28;20051;-77
2022/05/23 09:14:44;;;;;;;0.00;0.00;;;23.60;93.30;;;;;;5074115;28;20044;-77
2022/05/23 09:17:26;;;;;;;0.00;0.00;;;23.70;90.40;;;;;;5073432;28;20392;-76
2022/05/23 09:20:01;;;;;;;0.00;0.00;;;23.80;85.60;;;;;;5073661;28;20041;-76
2022/05/23 09:22:47;;;;;;;0.98;0.20;;;23.90;85.40;;;;;;5073833;28;20484;-77
2022/05/23 09:25:16;;;;;;;0.00;0.00;;;23.90;84.10;;;;;;5073458;28;20052;-77
2022/05/23 09:28:13;;;;;;;0.22;0.22;;;23.90;83.00;;;;;;5056537;28;20052;-77
2022/05/23 09:30:41;;;;;;;0.00;0.00;;;24.00;87.30;;;;;;5073312;28;20041;-77
2022/05/23 09:33:13;;;;;;;0.00;0.00;;;24.10;87.70;;;;;;5073217;28;20048;-78
2022/05/23 09:35:42;;;;;;;0.00;0.00;;;24.00;85.00;;;;;;5056445;28;20070;-78
2022/05/23 09:38:26;;;;;;;0.10;0.00;;;24.10;83.70;;;;;;5056482;28;20040;-77
2022/05/23 09:40:52;;;;;;;0.00;0.00;;;24.10;84.70;;;;;;5056102;28;20488;-77
2022/05/23 09:49:07;;;;;;;0.00;0.00;;;24.30;80.50;;;;;;5073316;28;20070;-78
2022/05/23 09:51:47;;;;;;;0.00;0.00;;;24.40;80.40;;;;;;5073164;28;20094;-78
2022/05/23 09:54:18;;;;;;;0.00;0.00;;;24.50;79.10;;;;;;5072419;28;20074;-76
2022/05/23 09:56:45;;;;;;;0.08;0.00;;;24.70;77.70;;;;;;5072219;28;20404;-77
2022/05/23 09:59:34;;;;;;;0.00;0.00;;;24.70;76.30;;;;;;5056583;28;20056;-77
2022/05/23 10:02:20;;;;;;;1.98;0.47;;;24.60;74.90;;;;;;5072520;28;20404;-78
2022/05/23 10:04:46;;;;;;;0.00;0.00;;;24.70;72.30;;;;;;5073062;28;20135;-78
2022/05/23 10:07:28;;;;;;;0.00;0.00;;;25.00;75.70;;;;;;5072676;28;20513;-76
2022/05/23 10:10:19;;;;;;;0.00;0.00;;;25.20;74.40;;;;;;5072963;28;20044;-76
2022/05/23 10:12:44;;;;;;;0.00;0.00;;;25.30;77.20;;;;;;5035016;28;20075;-76
2022/05/23 10:15:18;;;;;;;0.00;0.00;;;25.20;77.30;;;;;;5035065;28;20139;-77
2022/05/23 10:17:46;;;;;;;0.00;0.00;;;25.20;73.80;;;;;;5035120;28;20579;-77
2022/05/23 10:20:27;;;;;;;0.00;0.00;;;25.10;73.10;;;;;;5034870;28;20075;-77
2022/05/23 10:23:20;;;;;;;0.00;0.00;;;25.00;71.90;;;;;;5034867;28;20045;-78
2022/05/23 10:26:09;;;;;;;0.57;0.38;;;24.90;71.60;;;;;;5034993;28;20088;-78
2022/05/23 10:28:47;;;;;;;0.00;0.00;;;25.00;72.40;;;;;;5035003;28;20059;-77
2022/05/23 10:31:22;;;;;;;0.22;0.22;;;25.40;72.80;;;;;;5034688;28;20520;-78
2022/05/23 10:33:54;;;;;;;0.08;0.00;;;25.60;72.40;;;;;;5034602;28;20041;-79
2022/05/23 10:36:23;;;;;;;0.00;0.00;;;25.90;72.50;;;;;;5018396;28;20096;-78
2022/05/23 10:42:10;;;;;;;0.00;0.00;;;26.40;70.90;;;;;;5035296;28;20045;-77
2022/05/23 10:45:12;;;;;;;0.30;0.00;;;26.30;66.00;;;;;;5034600;28;20052;-77
2022/05/23 10:48:10;;;;;;;0.00;0.00;;;26.50;67.50;;;;;;5034667;28;20060;-78
2022/05/23 10:50:54;;;;;;;0.10;0.00;;;26.70;65.30;;;;;;4991221;28;20061;-78
2022/05/23 10:53:28;;;;;;;0.00;0.00;;;26.80;68.70;;;;;;5014640;28;20058;-77
2022/05/23 10:55:53;;;;;;;;;;;26.90;67.90;;;;;;5031761;28;20100;-78
2022/05/23 10:58:30;;;;;;;0.00;0.00;;;27.10;66.50;;;;;;4998920;28;19921;-78
2022/05/23 11:01:27;;;;;;;0.00;0.00;;;27.10;64.80;;;;;;5015043;28;20398;-78
2022/05/23 11:04:00;;;;;;;0.10;0.00;;;27.10;66.20;;;;;;5015090;28;20056;-78
2022/05/23 11:06:42;;;;;;;0.25;0.10;;;27.30;66.70;;;;;;4999011;28;20060;-78
2022/05/23 11:09:23;;;;;;;0.00;0.00;;;27.40;65.80;;;;;;5000639;28;20053;-78
2022/05/23 11:12:33;;;;;;;0.00;0.00;;;27.30;65.60;;;;;;5018445;28;20049;-78
2022/05/23 11:15:28;;;;;;;0.00;0.00;;;27.20;64.50;;;;;;4960285;28;20568;-79
2022/05/23 11:18:09;;;;;;;0.00;0.00;;;26.80;64.80;;;;;;4959995;28;20086;-77
2022/05/23 11:20:39;;;;;;;0.00;0.00;;;26.50;63.60;;;;;;4959917;28;20159;-78
2022/05/23 11:23:24;;;;;;;0.00;0.00;;;26.20;66.40;;;;;;4976173;28;20057;-79
2022/05/23 11:26:00;;;;;;;0.00;0.00;;;26.10;65.90;;;;;;4959796;28;20133;-79
2022/05/23 11:34:37;;;;;;;0.70;0.20;;;26.50;68.40;;;;;;5018169;28;20204;-78
2022/05/23 11:39:59;;;;;;;0.00;0.00;;;26.70;66.90;;;;;;5018006;28;20049;-78
2022/05/23 11:42:24;;;;;;;0.00;0.00;;;26.70;67.70;;;;;;5018309;28;20444;-80
2022/05/23 11:44:50;;;;;;;0.20;0.20;;;26.80;65.30;;;;;;5024769;28;20143;-79
2022/05/23 11:47:27;;;;;;;0.00;0.00;;;26.80;65.50;;;;;;5075244;28;20125;-79
2022/05/23 11:49:59;;;;;;;0.10;0.10;;;26.80;64.70;;;;;;5058837;28;20059;-78
2022/05/23 11:52:41;;;;;;;0.38;0.22;;;26.70;64.50;;;;;;5075589;28;20407;-78
2022/05/23 11:55:12;;;;;;;0.00;0.00;;;26.40;65.50;;;;;;5074985;28;20516;-78
2022/05/23 11:57:43;;;;;;;0.00;0.00;;;26.20;63.50;;;;;;5075381;28;20049;-79
2022/05/23 12:00:33;;;;;;;0.00;0.00;;;26.10;64.10;;;;;;5075273;28;20373;-79
2022/05/23 12:03:05;;;;;;;0.00;0.00;;;26.00;64.80;;;;;;5058679;28;20171;-79
2022/05/23 12:05:33;;;;;;;0.20;0.20;;;26.00;65.70;;;;;;5058218;28;20060;-78
2022/05/23 12:08:02;;;;;;;0.20;0.20;;;25.80;64.10;;;;;;5058436;28;20056;-78
2022/05/23 12:10:28;;;;;;;0.00;0.00;;;25.70;64.70;;;;;;5058291;28;20182;-79
2022/05/23 12:12:58;;;;;;;0.10;0.10;;;25.70;65.90;;;;;;5075068;28;20157;-78
2022/05/23 12:15:46;;;;;;;0.00;0.00;;;25.60;67.00;;;;;;5075195;28;20055;-78
2022/05/23 12:18:23;;;;;;;0.00;0.00;;;25.60;65.50;;;;;;5058447;28;20074;-79
2022/05/23 12:20:55;;;;;;;0.85;0.35;;;25.60;66.30;;;;;;5075011;28;20071;-79
2022/05/23 12:23:38;;;;;;;0.00;0.00;;;25.70;67.30;;;;;;5058613;28;20045;-78
2022/05/23 12:26:29;;;;;;;0.10;0.10;;;25.70;66.70;;;;;;5074747;28;20487;-79
2022/05/23 12:29:25;;;;;;;0.00;0.00;;;25.50;66.60;;;;;;5058025;28;20087;-78
2022/05/23 12:32:26;;;;;;;0.43;0.10;;;25.40;67.00;;;;;;5058106;28;20555;-78
2022/05/23 12:34:54;;;;;;;0.10;0.00;;;25.40;68.30;;;;;;5074610;28;20044;-78
2022/05/23 12:37:27;;;;;;;0.10;0.10;;;25.30;68.90;;;;;;5057917;28;20048;-79
2022/05/23 12:40:15;;;;;;;0.20;0.20;;;25.30;69.40;;;;;;5057961;28;20053;-78
2022/05/23 12:43:09;;;;;;;0.00;0.00;;;25.30;71.70;;;;;;5074335;28;20457;-78
2022/05/23 12:45:54;;;;;;;0.00;0.00;;;25.20;72.80;;;;;;5074294;28;20048;-78
2022/05/23 12:48:19;;;;;;;;;;;25.00;71.30;;;;;;5074637;28;20198;-77
2022/05/23 12:51:21;;;;;;;0.00;0.00;;;24.90;73.40;;;;;;5074547;28;19978;-78
2022/05/23 12:53:58;;;;;;;0.00;0.00;;;24.80;74.00;;;;;;5035862;28;20057;-78
2022/05/23 12:57:07;;;;;;;0.00;0.00;;;24.70;72.10;;;;;;5036464;28;20049;-77
2022/05/23 13:00:03;;;;;;;0.00;0.00;;;24.70;74.00;;;;;;5036438;28;20061;-78
2022/05/23 13:02:42;;;;;;;0.38;0.20;;;24.50;77.10;;;;;;5036371;28;20045;-79
2022/05/23 13:05:17;;;;;;;0.00;0.00;;;24.50;73.80;;;;;;5036666;28;20377;-78
2022/05/23 13:07:46;;;;;;;0.00;0.00;;;24.50;75.20;;;;;;5036482;28;20048;-78
2022/05/23 13:10:22;;;;;;;0.10;0.00;;;24.40;74.70;;;;;;5036309;28;20053;-78
2022/05/23 13:13:22;;;;;;;0.00;0.00;;;24.30;73.70;;;;;;5019508;28;20475;-78
2022/05/23 13:15:49;;;;;;;0.10;0.10;;;24.30;76.00;;;;;;5036505;28;20059;-78
2022/05/23 13:23:46;;;;;;;0.10;0.10;;;24.20;78.40;;;;;;5035857;28;19967;-79
2022/05/23 13:26:13;;;;;;;0.25;0.25;;;24.20;78.90;;;;;;5036119;28;20060;-78
2022/05/23 13:28:44;;;;;;;8.85;0.55;;;24.30;81.00;;;;;;5019372;28;20084;-78
2022/05/23 13:31:29;;;;;;;0.00;0.00;;;24.30;81.60;;;;;;5062380;28;20056;-79
2022/05/23 13:33:57;;;;;;;0.10;0.10;;;24.30;81.80;;;;;;5056620;28;20044;-78
2022/05/23 13:36:44;;;;;;;0.00;0.00;;;24.30;78.90;;;;;;5056764;28;20067;-78
2022/05/23 13:39:14;;;;;;;0.30;0.05;;;24.30;80.20;;;;;;5056179;28;20079;-78
2022/05/23 13:41:40;;;;;;;1.75;0.20;;;24.30;79.20;;;;;;5073174;28;20109;-78
2022/05/23 13:44:06;;;;;;;0.00;0.00;;;24.20;79.70;;;;;;5072474;28;20055;-78
2022/05/23 13:46:40;;;;;;;0.00;0.00;;;24.20;79.00;;;;;;5073088;28;20117;-78
2022/05/23 13:49:22;;;;;;;0.10;0.00;;;24.30;78.10;;;;;;5073060;28;20080;-78
2022/05/23 13:52:02;;;;;;;0.22;0.17;;;24.30;79.10;;;;;;5056468;28;20053;-78
2022/05/23 13:54:37;;;;;;;0.00;0.00;;;24.40;80.40;;;;;;5073061;28;20186;-78
2022/05/23 13:57:15;;;;;;;0.00;0.00;;;24.50;80.00;;;;;;5073009;28;20480;-78
2022/05/23 14:00:22;;;;;;;0.00;0.00;;;24.60;81.40;;;;;;5073234;28;20047;-78
2022/05/23 14:02:55;;;;;;;0.00;0.00;;;24.70;80.90;;;;;;5035277;28;20095;-78
2022/05/23 14:05:22;;;;;;;0.00;0.00;;;24.60;79.30;;;;;;5019062;28;20567;-78
2022/05/23 14:07:48;;;;;;;0.00;0.00;;;24.70;80.90;;;;;;5035717;28;20057;-78
2022/05/23 14:10:22;;;;;;;0.00;0.00;;;24.60;80.60;;;;;;5035101;28;20140;-78
2022/05/23 14:12:49;;;;;;;0.03;0.00;;;24.60;80.20;;;;;;5018826;28;20084;-78